Time;durP1;ratioP1;P1;durP2;ratioP2;P2;SDS_P1;SDS_P2;PMS_P1;PMS_P2;Temp;Humidity;BMP_temperature;BMP_pressure;BME280_temperature;BME280_humidity;BME280_pressure;Samples;Min_cycle;Max_cycle;Signal;HPM_P1;HPM_P2
2022/01/20 00:01:58;;;;;;;68.55;32.30;;;;;;;;;;5073819;28;20028;-64
2022/01/20 00:04:39;;;;;;;55.75;26.13;;;;;;;;;;5073600;28;20075;-64
2022/01/20 00:07:27;;;;;;;52.85;25.67;;;;;;;;;;5071354;27;22265;-65
2022/01/20 00:25:57;;;;;;;26.25;13.95;;;;;;;;;;5073750;28;20031;-68
2022/01/20 00:28:38;;;;;;;27.38;13.73;;;;;;;;;;5056164;28;20550;-66
2022/01/20 00:31:13;;;;;;;28.58;12.82;;;;;;;;;;5072554;28;20384;-68
2022/01/20 00:33:46;;;;;;;32.35;12.98;;;;;;;;;;5052675;28;20075;-67
2022/01/20 00:38:42;;;;;;;29.92;12.27;;;;;;;;;;5093468;28;20035;-64
2022/01/20 00:41:15;;;;;;;25.40;10.02;;;;;;;;;;5078471;27;20048;-64
2022/01/20 00:43:42;;;;;;;19.90;9.82;;;;;;;;;;5071756;28;20407;-64
2022/01/20 00:46:08;;;;;;;20.73;8.77;;;;;;;;;;5073297;28;20023;-63
2022/01/20 00:48:34;;;;;;;24.90;8.85;;;;;;;;;;5071433;28;20037;-66
2022/01/20 00:51:00;;;;;;;22.60;7.50;;;;;;;;;;5071188;28;20035;-64
2022/01/20 00:53:26;;;;;;;17.63;7.90;;;;;;;;;;5073129;28;20044;-64
2022/01/20 00:55:51;;;;;;;14.77;7.75;;;;;;;;;;5072952;28;20021;-64
2022/01/20 00:58:17;;;;;;;19.25;7.55;;;;;;;;;;5071767;28;20110;-65
2022/01/20 01:00:43;;;;;;;12.70;7.22;;;;;;;;;;5071346;28;20060;-64
2022/01/20 01:03:09;;;;;;;21.90;11.95;;;;;;;;;;5071565;28;20032;-68
2022/01/20 01:05:42;;;;;;;28.05;14.07;;;;;;;;;;5072209;28;20086;-64
2022/01/20 01:08:08;;;;;;;32.50;16.17;;;;;;;;;;5052559;28;20165;-64
2022/01/20 01:10:37;;;;;;;33.90;15.35;;;;;;;;;;5052269;28;20036;-65
2022/01/20 01:13:09;;;;;;;28.25;14.07;;;;;;;;;;5051879;28;20395;-65
2022/01/20 01:15:38;;;;;;;31.58;13.73;;;;;;;;;;5051323;28;20072;-64
2022/01/20 01:23:20;;;;;;;45.95;20.48;;;;;;;;;;5050548;28;20062;-64
2022/01/20 01:25:47;;;;;;;52.38;23.30;;;;;;;;;;5050536;28;20075;-69
2022/01/20 01:28:12;;;;;;;48.53;22.38;;;;;;;;;;5054571;28;20509;-66
2022/01/20 01:33:06;;;;;;;45.33;21.50;;;;;;;;;;5059508;28;20051;-67
2022/01/20 01:35:33;;;;;;;41.65;19.63;;;;;;;;;;5059146;28;20064;-66
2022/01/20 01:40:33;;;;;;;37.38;19.30;;;;;;;;;;5072161;28;20093;-69
2022/01/20 01:43:02;;;;;;;49.30;24.75;;;;;;;;;;5064682;28;20309;-65
2022/01/20 01:45:35;;;;;;;38.28;19.42;;;;;;;;;;5070183;28;20033;-63
2022/01/20 01:48:04;;;;;;;29.45;15.20;;;;;;;;;;5086213;28;20055;-68
2022/01/20 01:50:31;;;;;;;21.63;12.30;;;;;;;;;;5073969;28;20086;-66
2022/01/20 01:53:00;;;;;;;22.42;12.05;;;;;;;;;;5075767;28;20055;-67
2022/01/20 01:55:26;;;;;;;25.55;14.10;;;;;;;;;;5071166;28;20031;-71
2022/01/20 01:57:52;;;;;;;35.83;17.80;;;;;;;;;;5071268;28;20036;-69
2022/01/20 02:00:21;;;;;;;34.22;17.15;;;;;;;;;;5077407;28;20111;-66
2022/01/20 02:02:53;;;;;;;29.98;15.70;;;;;;;;;;5090803;28;20036;-72
2022/01/20 02:05:24;;;;;;;30.70;14.82;;;;;;;;;;5088764;28;20040;-73
2022/01/20 02:18:58;;;;;;;26.15;12.52;;;;;;;;;;5049197;28;20040;-72
2022/01/20 02:21:44;;;;;;;26.40;13.48;;;;;;;;;;5048979;28;20024;-64
2022/01/20 02:24:10;;;;;;;30.17;14.18;;;;;;;;;;5050323;28;20043;-65
2022/01/20 02:26:36;;;;;;;31.52;15.27;;;;;;;;;;5068400;28;20025;-64
2022/01/20 02:29:02;;;;;;;39.17;19.58;;;;;;;;;;5070009;28;20168;-64
2022/01/20 02:31:28;;;;;;;35.72;16.52;;;;;;;;;;5068492;28;20043;-64
2022/01/20 02:33:57;;;;;;;29.60;15.57;;;;;;;;;;5055667;28;20491;-65
2022/01/20 02:36:24;;;;;;;32.17;15.70;;;;;;;;;;5073298;28;20044;-65
2022/01/20 02:39:06;;;;;;;28.75;14.52;;;;;;;;;;5086322;28;20036;-66
2022/01/20 02:47:13;;;;;;;20.60;11.55;;;;;;;;;;5087270;28;20036;-65
2022/01/20 02:49:38;;;;;;;23.75;12.48;;;;;;;;;;5080013;28;20089;-63
2022/01/20 02:52:06;;;;;;;26.13;11.57;;;;;;;;;;5077709;28;20032;-65
2022/01/20 02:54:32;;;;;;;27.10;12.50;;;;;;;;;;5078014;28;20096;-64
2022/01/20 02:56:59;;;;;;;24.55;12.93;;;;;;;;;;5079780;28;20028;-63
2022/01/20 02:59:25;;;;;;;22.77;11.80;;;;;;;;;;5078106;28;20025;-64
2022/01/20 03:01:51;;;;;;;27.25;12.07;;;;;;;;;;5088361;28;20387;-66
2022/01/20 03:04:17;;;;;;;31.15;13.43;;;;;;;;;;5078886;28;20028;-70
2022/01/20 03:06:43;;;;;;;24.33;13.32;;;;;;;;;;5078405;28;20475;-64
2022/01/20 03:09:08;;;;;;;24.42;11.27;;;;;;;;;;5067794;28;20060;-64
2022/01/20 03:11:34;;;;;;;22.80;12.32;;;;;;;;;;5077503;28;20383;-66
2022/01/20 03:14:00;;;;;;;25.77;13.80;;;;;;;;;;5085598;28;20028;-70
2022/01/20 03:16:26;;;;;;;25.67;11.35;;;;;;;;;;5086349;28;20065;-67
2022/01/20 03:18:52;;;;;;;20.85;10.27;;;;;;;;;;5081515;28;20384;-65
2022/01/20 03:21:19;;;;;;;18.88;10.98;;;;;;;;;;5082584;28;20046;-66
2022/01/20 03:23:46;;;;;;;21.88;10.85;;;;;;;;;;5081123;28;20028;-65
2022/01/20 03:26:13;;;;;;;22.77;12.13;;;;;;;;;;5090753;28;20474;-64
2022/01/20 03:28:39;;;;;;;25.80;11.88;;;;;;;;;;5088295;28;20041;-73
2022/01/20 03:31:05;;;;;;;18.20;10.75;;;;;;;;;;5088060;28;20098;-70
2022/01/20 03:33:30;;;;;;;21.30;12.30;;;;;;;;;;5088790;28;20031;-70
2022/01/20 03:35:57;;;;;;;22.33;11.00;;;;;;;;;;5081840;28;20450;-75
2022/01/20 03:38:57;;;;;;;21.95;11.30;;;;;;;;;;5083796;28;20039;-73
2022/01/20 03:41:23;;;;;;;17.38;9.82;;;;;;;;;;5085409;28;20048;-68
2022/01/20 03:43:53;;;;;;;21.60;10.57;;;;;;;;;;5073680;28;20060;-69
2022/01/20 03:46:19;;;;;;;21.00;11.40;;;;;;;;;;5072296;28;20071;-69
2022/01/20 03:48:53;;;;;;;23.95;13.13;;;;;;;;;;5076270;28;20032;-71
2022/01/20 03:51:25;;;;;;;26.85;11.35;;;;;;;;;;5082908;28;20538;-68
2022/01/20 03:53:55;;;;;;;26.85;11.45;;;;;;;;;;5082289;28;20032;-67
2022/01/20 03:56:28;;;;;;;21.23;11.18;;;;;;;;;;5080126;28;20429;-72
2022/01/20 03:59:20;;;;;;;25.45;11.48;;;;;;;;;;5085673;28;20375;-69
2022/01/20 04:01:46;;;;;;;25.38;11.38;;;;;;;;;;5089493;28;20043;-73
2022/01/20 04:04:40;;;;;;;29.23;11.82;;;;;;;;;;5082568;28;20368;-70
2022/01/20 04:07:14;;;;;;;22.05;11.40;;;;;;;;;;5091972;28;20044;-69
2022/01/20 04:09:40;;;;;;;22.67;10.45;;;;;;;;;;5081758;28;20109;-64
2022/01/20 04:12:07;;;;;;;22.00;10.45;;;;;;;;;;5091584;28;20042;-63
2022/01/20 04:14:34;;;;;;;20.05;10.43;;;;;;;;;;5075559;28;20067;-64
2022/01/20 04:17:03;;;;;;;22.65;10.38;;;;;;;;;;5088668;28;20039;-67
2022/01/20 04:19:32;;;;;;;21.30;10.30;;;;;;;;;;5079426;28;20028;-67
2022/01/20 04:22:00;;;;;;;30.27;11.00;;;;;;;;;;5082908;28;20147;-67
2022/01/20 04:24:27;;;;;;;28.50;12.63;;;;;;;;;;5087154;28;20487;-66
2022/01/20 04:26:53;;;;;;;26.55;12.60;;;;;;;;;;5075961;28;20032;-65
2022/01/20 04:29:19;;;;;;;34.45;11.98;;;;;;;;;;5077522;28;20051;-67
2022/01/20 04:31:48;;;;;;;28.25;12.35;;;;;;;;;;5088846;28;20064;-68
2022/01/20 04:34:15;;;;;;;25.95;13.68;;;;;;;;;;5072828;28;20498;-65
2022/01/20 04:36:44;;;;;;;30.75;13.45;;;;;;;;;;5083957;28;20032;-65
2022/01/20 04:39:15;;;;;;;22.70;12.05;;;;;;;;;;5090676;28;20039;-66
2022/01/20 04:41:42;;;;;;;24.42;12.00;;;;;;;;;;5081857;28;20032;-65
2022/01/20 04:44:14;;;;;;;27.05;12.27;;;;;;;;;;5071036;28;20029;-64
2022/01/20 04:47:06;;;;;;;22.77;11.93;;;;;;;;;;5084110;28;20037;-66
2022/01/20 04:57:59;;;;;;;26.58;12.35;;;;;;;;;;5033009;28;20069;-66
2022/01/20 05:00:25;;;;;;;27.17;11.40;;;;;;;;;;5057446;28;20112;-66
2022/01/20 05:03:09;;;;;;;30.02;13.60;;;;;;;;;;5062163;28;20048;-65
2022/01/20 05:05:36;;;;;;;26.48;13.35;;;;;;;;;;5070035;28;20483;-63
2022/01/20 05:08:17;;;;;;;38.83;14.95;;;;;;;;;;5068328;28;20036;-66
2022/01/20 05:10:43;;;;;;;34.97;14.05;;;;;;;;;;5070815;28;20028;-66
2022/01/20 05:13:22;;;;;;;20.60;11.45;;;;;;;;;;5059677;28;20053;-68
2022/01/20 05:15:48;;;;;;;34.15;13.40;;;;;;;;;;5058731;28;20461;-67
2022/01/20 05:18:14;;;;;;;28.10;13.38;;;;;;;;;;5058919;28;20067;-64
2022/01/20 05:20:40;;;;;;;39.10;16.38;;;;;;;;;;5058894;28;20389;-68
2022/01/20 05:23:06;;;;;;;40.05;18.88;;;;;;;;;;5067485;28;20064;-66
2022/01/20 05:25:32;;;;;;;40.15;18.08;;;;;;;;;;5059970;28;20032;-66
2022/01/20 05:27:58;;;;;;;38.80;16.52;;;;;;;;;;5067259;28;20743;-69
2022/01/20 05:30:24;;;;;;;39.17;16.80;;;;;;;;;;5057236;28;20453;-74
2022/01/20 05:33:19;;;;;;;27.13;12.93;;;;;;;;;;5058334;28;20021;-72
2022/01/20 05:35:45;;;;;;;23.17;10.75;;;;;;;;;;5050749;28;20128;-69
2022/01/20 05:38:12;;;;;;;22.08;10.10;;;;;;;;;;5057241;28;20074;-74
2022/01/20 05:40:39;;;;;;;12.63;8.02;;;;;;;;;;5065526;28;20170;-74
2022/01/20 05:43:05;;;;;;;12.57;5.00;;;;;;;;;;5054617;28;20042;-71
2022/01/20 05:45:33;;;;;;;17.52;6.60;;;;;;;;;;5062135;28;20058;-72
2022/01/20 05:48:12;;;;;;;11.45;5.20;;;;;;;;;;5062297;28;20036;-74
2022/01/20 05:50:56;;;;;;;14.50;5.35;;;;;;;;;;5072739;28;20042;-71
2022/01/20 05:53:22;;;;;;;21.10;6.63;;;;;;;;;;5067304;28;20116;-73
2022/01/20 05:55:49;;;;;;;17.10;6.25;;;;;;;;;;5063681;28;20517;-75
2022/01/20 05:58:15;;;;;;;14.10;7.32;;;;;;;;;;5055341;28;20060;-70
2022/01/20 06:00:42;;;;;;;17.35;7.75;;;;;;;;;;5037426;28;20063;-72
2022/01/20 06:05:53;;;;;;;21.08;8.93;;;;;;;;;;5069625;28;20028;-69
2022/01/20 06:08:19;;;;;;;21.08;7.60;;;;;;;;;;5051277;28;20036;-72
2022/01/20 06:10:46;;;;;;;17.42;8.18;;;;;;;;;;5056029;28;20037;-68
2022/01/20 06:13:24;;;;;;;22.98;9.43;;;;;;;;;;5061117;28;20112;-69
2022/01/20 06:15:50;;;;;;;15.20;7.18;;;;;;;;;;5062070;28;20055;-68
2022/01/20 06:18:17;;;;;;;16.40;8.88;;;;;;;;;;5055216;28;20040;-67
2022/01/20 06:21:02;;;;;;;25.95;9.70;;;;;;;;;;5050921;28;20514;-72
2022/01/20 06:23:28;;;;;;;37.20;16.05;;;;;;;;;;5070062;28;20364;-69
2022/01/20 06:25:55;;;;;;;44.25;15.55;;;;;;;;;;5055113;28;20400;-69
2022/01/20 06:28:22;;;;;;;27.58;14.95;;;;;;;;;;5068835;28;20075;-70
2022/01/20 06:30:50;;;;;;;23.00;12.95;;;;;;;;;;5050770;28;20033;-69
2022/01/20 06:33:15;;;;;;;31.38;15.00;;;;;;;;;;5062542;28;20115;-72
2022/01/20 06:35:51;;;;;;;28.00;15.07;;;;;;;;;;5052610;28;20039;-70
2022/01/20 06:38:18;;;;;;;31.98;12.52;;;;;;;;;;5062392;28;20029;-72
2022/01/20 06:40:44;;;;;;;24.10;10.70;;;;;;;;;;5066493;28;20025;-70
2022/01/20 06:43:10;;;;;;;24.35;10.60;;;;;;;;;;5036876;28;20037;-70
2022/01/20 06:45:36;;;;;;;21.27;9.35;;;;;;;;;;5050006;28;20036;-70
2022/01/20 06:48:08;;;;;;;17.42;10.05;;;;;;;;;;5062437;28;20067;-70
2022/01/20 06:50:40;;;;;;;18.27;9.18;;;;;;;;;;5055643;28;20033;-72
2022/01/20 06:53:06;;;;;;;18.27;9.13;;;;;;;;;;5068591;28;20065;-74
2022/01/20 06:55:34;;;;;;;17.85;9.57;;;;;;;;;;5063185;28;20039;-69
2022/01/20 06:58:00;;;;;;;14.32;9.00;;;;;;;;;;5060351;28;20033;-71
2022/01/20 07:00:26;;;;;;;19.40;9.98;;;;;;;;;;5071536;28;20356;-71
2022/01/20 07:02:53;;;;;;;23.83;10.73;;;;;;;;;;5045845;28;20388;-71
2022/01/20 07:05:21;;;;;;;20.20;10.30;;;;;;;;;;5051864;28;20040;-72
2022/01/20 07:07:47;;;;;;;17.83;9.07;;;;;;;;;;5069276;28;20782;-71
2022/01/20 07:10:22;;;;;;;37.22;18.95;;;;;;;;;;5073759;28;20035;-71
2022/01/20 07:12:51;;;;;;;42.15;20.73;;;;;;;;;;5061367;28;20420;-71
2022/01/20 07:15:18;;;;;;;42.70;21.05;;;;;;;;;;5068530;28;20021;-71
2022/01/20 07:17:45;;;;;;;37.60;20.73;;;;;;;;;;5074010;28;20040;-70
2022/01/20 07:20:13;;;;;;;47.03;21.20;;;;;;;;;;5065498;28;20388;-70
2022/01/20 07:22:58;;;;;;;30.25;15.65;;;;;;;;;;5070267;28;20162;-70
2022/01/20 07:25:24;;;;;;;32.47;15.40;;;;;;;;;;5056778;28;20036;-71
2022/01/20 07:27:53;;;;;;;26.58;15.23;;;;;;;;;;5069068;28;20037;-70
2022/01/20 07:30:20;;;;;;;23.27;13.80;;;;;;;;;;5060828;28;20495;-77
2022/01/20 07:32:47;;;;;;;24.95;13.18;;;;;;;;;;5051876;28;20399;-78
2022/01/20 07:35:18;;;;;;;23.40;11.93;;;;;;;;;;5061815;28;20055;-79
2022/01/20 07:37:44;;;;;;;30.85;13.80;;;;;;;;;;5073505;28;20456;-72
2022/01/20 07:40:11;;;;;;;30.02;13.77;;;;;;;;;;5061743;28;20028;-74
2022/01/20 07:42:36;;;;;;;23.48;11.95;;;;;;;;;;5069157;28;20043;-75
2022/01/20 07:45:08;;;;;;;20.77;11.80;;;;;;;;;;5052201;28;20376;-75
2022/01/20 07:47:58;;;;;;;20.70;11.50;;;;;;;;;;5053151;28;20033;-69
2022/01/20 07:50:24;;;;;;;25.23;12.90;;;;;;;;;;5058123;28;20032;-71
2022/01/20 07:52:50;;;;;;;24.00;12.00;;;;;;;;;;5063039;28;20025;-73
2022/01/20 07:55:16;;;;;;;31.45;11.98;;;;;;;;;;5072458;28;20438;-72
2022/01/20 07:57:42;;;;;;;23.42;10.77;;;;;;;;;;5072235;28;20127;-72
2022/01/20 08:00:09;;;;;;;20.00;9.80;;;;;;;;;;5059518;28;20405;-71
2022/01/20 08:02:45;;;;;;;18.50;8.85;;;;;;;;;;5069724;28;20115;-72
2022/01/20 08:05:23;;;;;;;19.52;9.13;;;;;;;;;;5060270;28;20471;-72
2022/01/20 08:07:49;;;;;;;20.13;9.90;;;;;;;;;;5060549;28;20045;-73
2022/01/20 08:10:16;;;;;;;22.52;9.30;;;;;;;;;;5051904;28;20025;-74
2022/01/20 08:12:43;;;;;;;19.90;7.55;;;;;;;;;;5070971;28;20401;-75
2022/01/20 08:15:15;;;;;;;13.73;7.45;;;;;;;;;;5064723;28;20434;-72
2022/01/20 08:17:59;;;;;;;21.50;8.77;;;;;;;;;;5053708;28;20158;-72
2022/01/20 08:20:26;;;;;;;20.25;8.88;;;;;;;;;;5051180;28;20506;-72
2022/01/20 08:22:57;;;;;;;21.08;8.80;;;;;;;;;;5062145;28;20059;-76
2022/01/20 08:25:23;;;;;;;15.07;9.05;;;;;;;;;;5061095;28;20064;-74
2022/01/20 08:27:50;;;;;;;19.67;9.05;;;;;;;;;;5070222;28;20467;-73
2022/01/20 08:30:23;;;;;;;21.00;10.38;;;;;;;;;;5055755;28;20124;-72
2022/01/20 08:32:50;;;;;;;13.77;7.80;;;;;;;;;;5064999;28;20063;-73
2022/01/20 08:35:23;;;;;;;14.60;8.10;;;;;;;;;;5063500;28;20120;-72
2022/01/20 08:37:53;;;;;;;21.25;9.38;;;;;;;;;;5059737;28;20087;-72
2022/01/20 08:40:23;;;;;;;19.92;8.82;;;;;;;;;;5061887;28;20033;-73
2022/01/20 08:42:51;;;;;;;12.73;7.53;;;;;;;;;;5082045;28;20032;-73
2022/01/20 08:45:21;;;;;;;18.02;8.18;;;;;;;;;;5085867;28;20545;-73
2022/01/20 08:47:51;;;;;;;13.55;8.40;;;;;;;;;;5067385;28;20037;-73
2022/01/20 08:50:18;;;;;;;16.50;8.55;;;;;;;;;;5070461;28;20036;-72
2022/01/20 08:52:45;;;;;;;16.55;7.75;;;;;;;;;;5065957;28;20029;-72
2022/01/20 08:55:11;;;;;;;18.45;7.80;;;;;;;;;;5066559;28;20491;-71
2022/01/20 08:57:53;;;;;;;20.20;8.77;;;;;;;;;;5061695;28;20037;-73
2022/01/20 09:00:20;;;;;;;18.88;8.77;;;;;;;;;;5067711;28;20036;-73
2022/01/20 09:02:57;;;;;;;18.30;8.48;;;;;;;;;;5070768;28;20029;-72
2022/01/20 09:05:24;;;;;;;18.40;9.52;;;;;;;;;;5057886;28;20498;-73
2022/01/20 09:08:02;;;;;;;13.55;8.20;;;;;;;;;;5051760;28;20037;-73
2022/01/20 09:10:36;;;;;;;14.05;7.05;;;;;;;;;;5067067;28;20029;-70
2022/01/20 09:15:48;;;;;;;17.00;7.88;;;;;;;;;;5051909;28;20380;-77
2022/01/20 09:18:25;;;;;;;13.27;7.82;;;;;;;;;;5059204;28;20025;-73
2022/01/20 09:20:52;;;;;;;17.85;9.52;;;;;;;;;;5058116;28;20036;-72
2022/01/20 09:23:21;;;;;;;14.48;9.57;;;;;;;;;;5063836;28;20040;-73
2022/01/20 09:25:49;;;;;;;23.08;9.52;;;;;;;;;;5069352;28;20032;-72
2022/01/20 09:28:16;;;;;;;17.50;9.13;;;;;;;;;;5053035;28;20051;-74
2022/01/20 09:30:45;;;;;;;19.63;9.88;;;;;;;;;;5067987;28;20380;-74
2022/01/20 09:33:23;;;;;;;21.38;10.25;;;;;;;;;;5057063;28;20032;-74
2022/01/20 09:35:50;;;;;;;18.92;10.35;;;;;;;;;;5046846;28;20060;-74
2022/01/20 09:38:15;;;;;;;17.67;10.30;;;;;;;;;;5066261;28;20108;-74
2022/01/20 09:40:43;;;;;;;17.40;9.98;;;;;;;;;;5056070;28;20040;-80
2022/01/20 09:43:14;;;;;;;18.58;11.25;;;;;;;;;;5067478;28;20025;-77
2022/01/20 09:45:41;;;;;;;19.92;10.05;;;;;;;;;;5072382;28;20051;-73
2022/01/20 09:48:07;;;;;;;18.83;10.55;;;;;;;;;;5077289;28;20112;-72
2022/01/20 09:51:13;;;;;;;22.73;11.50;;;;;;;;;;5067729;28;20392;-74
2022/01/20 09:53:55;;;;;;;22.60;11.73;;;;;;;;;;5076772;28;20048;-77
2022/01/20 09:56:36;;;;;;;22.73;11.05;;;;;;;;;;5059202;28;20056;-75
2022/01/20 09:59:03;;;;;;;22.45;11.55;;;;;;;;;;5071348;28;20501;-75
2022/01/20 10:01:47;;;;;;;19.50;10.50;;;;;;;;;;5054335;28;20032;-74
2022/01/20 10:04:24;;;;;;;15.20;9.70;;;;;;;;;;5070702;28;20035;-74
2022/01/20 10:07:10;;;;;;;19.88;9.20;;;;;;;;;;5071530;28;20395;-74
2022/01/20 10:09:49;;;;;;;19.98;10.40;;;;;;;;;;5071325;28;20403;-71
2022/01/20 10:12:28;;;;;;;19.52;10.43;;;;;;;;;;5071408;28;20029;-80
2022/01/20 10:15:14;;;;;;;19.02;9.93;;;;;;;;;;5071260;28;20033;-71
2022/01/20 10:18:14;;;;;;;16.05;9.50;;;;;;;;;;5048680;28;20040;-71
2022/01/20 10:20:53;;;;;;;16.42;9.35;;;;;;;;;;5071240;28;20052;-72
2022/01/20 10:23:41;;;;;;;23.92;8.57;;;;;;;;;;5071481;28;20135;-77
2022/01/20 10:26:27;;;;;;;17.45;9.40;;;;;;;;;;5071922;28;20043;-74
2022/01/20 10:29:08;;;;;;;16.83;8.98;;;;;;;;;;5074246;28;20113;-75
2022/01/20 10:31:47;;;;;;;13.45;7.72;;;;;;;;;;5074099;28;20043;-71
2022/01/20 10:34:28;;;;;;;14.43;9.05;;;;;;;;;;5071604;28;20037;-79
2022/01/20 10:37:03;;;;;;;18.58;9.05;;;;;;;;;;5073463;28;20081;-72
2022/01/20 10:39:42;;;;;;;16.35;8.65;;;;;;;;;;5059082;28;20037;-76
2022/01/20 10:42:19;;;;;;;19.38;7.43;;;;;;;;;;5069460;28;20028;-69
2022/01/20 10:44:57;;;;;;;15.75;8.48;;;;;;;;;;5066187;28;20119;-75
2022/01/20 10:47:29;;;;;;;12.15;7.53;;;;;;;;;;5048928;28;20044;-71
2022/01/20 10:50:07;;;;;;;11.45;6.63;;;;;;;;;;5067158;28;20532;-75
2022/01/20 10:52:37;;;;;;;15.13;6.82;;;;;;;;;;5056647;28;20281;-75
2022/01/20 10:55:06;;;;;;;13.30;7.28;;;;;;;;;;5062355;28;20032;-76
2022/01/20 10:57:42;;;;;;;12.95;7.05;;;;;;;;;;5069275;28;20479;-73
2022/01/20 11:00:12;;;;;;;13.45;7.43;;;;;;;;;;5066136;28;20185;-76
2022/01/20 11:02:51;;;;;;;15.20;8.90;;;;;;;;;;5051803;28;20068;-77
2022/01/20 11:05:18;;;;;;;;;;;;;;;;;;5054228;28;20382;-71
2022/01/20 11:07:45;;;;;;;19.10;10.15;;;;;;;;;;5048878;28;20079;-76
2022/01/20 11:10:13;;;;;;;17.77;10.00;;;;;;;;;;5052966;28;20032;-75
2022/01/20 11:12:40;;;;;;;14.68;9.68;;;;;;;;;;5071788;28;20032;-73
2022/01/20 11:15:26;;;;;;;21.65;10.93;;;;;;;;;;5070326;28;20067;-73
2022/01/20 11:17:56;;;;;;;20.42;10.27;;;;;;;;;;5069544;28;20032;-71
2022/01/20 11:20:28;;;;;;;23.10;13.60;;;;;;;;;;5069358;28;20516;-76
2022/01/20 11:22:58;;;;;;;20.73;10.82;;;;;;;;;;5062844;28;20087;-74
2022/01/20 11:25:48;;;;;;;19.27;10.68;;;;;;;;;;5059320;28;20135;-75
2022/01/20 11:28:24;;;;;;;19.92;11.48;;;;;;;;;;5068480;28;20044;-74
2022/01/20 11:31:04;;;;;;;23.70;12.73;;;;;;;;;;5070029;28;20033;-71
2022/01/20 11:33:50;;;;;;;26.60;10.93;;;;;;;;;;5070002;28;20045;-76
2022/01/20 11:36:25;;;;;;;16.23;9.63;;;;;;;;;;5066489;28;20568;-71
2022/01/20 11:38:58;;;;;;;22.40;12.25;;;;;;;;;;5064375;28;20467;-74
2022/01/20 11:41:46;;;;;;;27.15;14.70;;;;;;;;;;5071019;28;20066;-71
2022/01/20 11:44:26;;;;;;;19.25;9.80;;;;;;;;;;5074653;28;20486;-70
2022/01/20 11:46:53;;;;;;;22.17;11.30;;;;;;;;;;5057578;28;20044;-75
2022/01/20 11:49:22;;;;;;;15.77;9.20;;;;;;;;;;5057833;28;20033;-76
2022/01/20 11:51:57;;;;;;;17.98;10.20;;;;;;;;;;5074062;28;20029;-73
2022/01/20 11:54:33;;;;;;;22.27;10.25;;;;;;;;;;5074584;28;20040;-73
2022/01/20 11:57:10;;;;;;;17.55;10.60;;;;;;;;;;5068727;28;20037;-71
2022/01/20 11:59:39;;;;;;;18.40;9.32;;;;;;;;;;5052476;28;20041;-70
2022/01/20 12:02:05;;;;;;;22.30;9.60;;;;;;;;;;5053394;28;20066;-72
2022/01/20 12:04:37;;;;;;;20.17;10.38;;;;;;;;;;5053227;28;20041;-72
2022/01/20 12:07:11;;;;;;;15.55;10.48;;;;;;;;;;5059411;28;20040;-71
2022/01/20 12:09:39;;;;;;;20.45;10.77;;;;;;;;;;5074285;28;20067;-71
2022/01/20 12:12:21;;;;;;;25.60;12.18;;;;;;;;;;5073969;28;20060;-74
2022/01/20 12:14:47;;;;;;;18.45;10.40;;;;;;;;;;5073555;28;20126;-73
2022/01/20 12:17:16;;;;;;;20.27;12.68;;;;;;;;;;5074049;28;20132;-74
2022/01/20 12:19:47;;;;;;;22.08;11.23;;;;;;;;;;5074308;28;20033;-72
2022/01/20 12:22:13;;;;;;;30.77;13.90;;;;;;;;;;5074066;28;20101;-69
2022/01/20 12:24:53;;;;;;;28.92;13.90;;;;;;;;;;5073707;28;20032;-75
2022/01/20 12:27:21;;;;;;;23.20;13.73;;;;;;;;;;5073427;28;20039;-74
2022/01/20 12:29:47;;;;;;;28.33;13.60;;;;;;;;;;5072253;28;20086;-76
2022/01/20 12:32:16;;;;;;;24.65;13.65;;;;;;;;;;5072719;28;20104;-72
2022/01/20 12:34:42;;;;;;;22.70;14.35;;;;;;;;;;5074434;28;20013;-73
2022/01/20 12:37:08;;;;;;;24.15;14.48;;;;;;;;;;5073638;28;20028;-73
2022/01/20 12:39:37;;;;;;;27.13;14.48;;;;;;;;;;5073849;28;20020;-73
2022/01/20 12:42:11;;;;;;;28.52;14.95;;;;;;;;;;5074096;28;20083;-74
2022/01/20 12:44:39;;;;;;;;;;;;;;;;;;5073899;28;20024;-74
2022/01/20 12:47:05;;;;;;;26.63;15.07;;;;;;;;;;5073518;28;20341;-72
2022/01/20 12:49:31;;;;;;;26.05;13.90;;;;;;;;;;5073259;28;20044;-73
2022/01/20 12:51:57;;;;;;;25.73;14.68;;;;;;;;;;5072663;28;20021;-72
2022/01/20 12:54:27;;;;;;;25.23;14.38;;;;;;;;;;5073252;28;20032;-72
2022/01/20 12:56:58;;;;;;;27.02;14.95;;;;;;;;;;5072010;28;20024;-75
2022/01/20 12:59:27;;;;;;;30.13;13.88;;;;;;;;;;5069280;28;20104;-72
2022/01/20 13:02:01;;;;;;;34.40;16.55;;;;;;;;;;5073103;28;20468;-76
2022/01/20 13:04:30;;;;;;;26.30;16.17;;;;;;;;;;5073394;28;20032;-72
2022/01/20 13:07:00;;;;;;;34.25;15.50;;;;;;;;;;5073088;28;20384;-74
2022/01/20 13:09:38;;;;;;;26.60;14.50;;;;;;;;;;5072412;28;20044;-71
2022/01/20 13:12:05;;;;;;;22.40;13.25;;;;;;;;;;5072989;28;20066;-76
2022/01/20 13:14:35;;;;;;;20.45;12.27;;;;;;;;;;5073342;28;20416;-76
2022/01/20 13:17:03;;;;;;;27.33;12.48;;;;;;;;;;5072734;28;20154;-78
2022/01/20 13:19:48;;;;;;;22.35;12.85;;;;;;;;;;5073013;28;20058;-77
2022/01/20 13:22:25;;;;;;;24.38;12.23;;;;;;;;;;5073088;28;20059;-77
2022/01/20 13:24:51;;;;;;;28.15;13.90;;;;;;;;;;5072662;28;20406;-77
2022/01/20 13:27:16;;;;;;;25.77;13.35;;;;;;;;;;5073249;28;20027;-73
2022/01/20 13:29:49;;;;;;;23.15;13.18;;;;;;;;;;5072770;28;20091;-73
2022/01/20 13:32:16;;;;;;;24.05;14.25;;;;;;;;;;5072647;28;20494;-74
2022/01/20 13:34:53;;;;;;;22.13;11.82;;;;;;;;;;5071775;28;20083;-75
2022/01/20 13:37:19;;;;;;;27.52;13.43;;;;;;;;;;5071881;28;20032;-73
2022/01/20 13:39:45;;;;;;;26.73;13.88;;;;;;;;;;5072370;28;20074;-76
2022/01/20 13:44:59;;;;;;;22.15;13.00;;;;;;;;;;5072550;28;20468;-74
2022/01/20 13:45:13;;;;;;;22.58;12.15;;;;;;;;;;5072193;28;20562;-71
2022/01/20 13:47:54;;;;;;;20.13;11.52;;;;;;;;;;5072352;28;20507;-71
2022/01/20 13:50:22;;;;;;;17.27;10.73;;;;;;;;;;5072158;28;20430;-71
2022/01/20 13:52:48;;;;;;;20.52;11.35;;;;;;;;;;5072376;28;20025;-73
2022/01/20 13:55:35;;;;;;;26.40;15.02;;;;;;;;;;5072539;28;20063;-73
2022/01/20 13:58:03;;;;;;;26.50;13.07;;;;;;;;;;5072008;28;20032;-72
2022/01/20 14:00:31;;;;;;;19.83;10.65;;;;;;;;;;5072269;28;20115;-73
2022/01/20 14:02:57;;;;;;;28.23;10.95;;;;;;;;;;5072095;28;20094;-71
2022/01/20 14:05:29;;;;;;;23.15;11.25;;;;;;;;;;5072235;28;20052;-75
2022/01/20 14:07:57;;;;;;;21.02;12.00;;;;;;;;;;5072070;28;20086;-73
2022/01/20 14:10:23;;;;;;;26.80;13.70;;;;;;;;;;5072233;28;20105;-72
2022/01/20 14:12:49;;;;;;;23.48;12.23;;;;;;;;;;5072092;28;20391;-72
2022/01/20 14:15:15;;;;;;;20.60;9.98;;;;;;;;;;5071781;28;20024;-71
2022/01/20 14:17:49;;;;;;;34.05;10.93;;;;;;;;;;5072012;28;20028;-75
2022/01/20 14:20:15;;;;;;;25.50;13.95;;;;;;;;;;5071976;28;20036;-74
2022/01/20 14:22:41;;;;;;;24.95;14.15;;;;;;;;;;5072322;28;20025;-71
2022/01/20 14:25:11;;;;;;;20.85;12.75;;;;;;;;;;5072165;28;20383;-73
2022/01/20 14:27:56;;;;;;;21.98;13.13;;;;;;;;;;5069292;28;20076;-72
2022/01/20 14:30:24;;;;;;;24.88;14.20;;;;;;;;;;5072422;28;20387;-73
2022/01/20 14:32:50;;;;;;;23.92;12.20;;;;;;;;;;5072283;28;20476;-72
2022/01/20 14:35:17;;;;;;;20.17;10.05;;;;;;;;;;5071649;28;20399;-72
2022/01/20 14:37:43;;;;;;;24.25;11.32;;;;;;;;;;5071964;28;20035;-72
2022/01/20 14:40:12;;;;;;;25.90;12.70;;;;;;;;;;5072263;28;20131;-72
2022/01/20 14:42:39;;;;;;;20.65;12.20;;;;;;;;;;5070326;28;20051;-75
2022/01/20 14:45:07;;;;;;;23.05;12.07;;;;;;;;;;5072240;28;20420;-74
2022/01/20 14:47:33;;;;;;;23.20;12.35;;;;;;;;;;5071953;28;20055;-73
2022/01/20 14:50:00;;;;;;;27.48;14.05;;;;;;;;;;5071560;28;20467;-72
2022/01/20 14:52:27;;;;;;;26.73;14.00;;;;;;;;;;5070530;28;20381;-71
2022/01/20 14:54:53;;;;;;;23.63;15.20;;;;;;;;;;5071473;28;20055;-70
2022/01/20 14:57:21;;;;;;;25.65;14.95;;;;;;;;;;5071281;28;20032;-76
2022/01/20 14:59:47;;;;;;;59.47;20.17;;;;;;;;;;5071374;28;20021;-72
2022/01/20 15:02:14;;;;;;;34.92;14.18;;;;;;;;;;5071889;28;20033;-72
2022/01/20 15:04:40;;;;;;;25.45;11.88;;;;;;;;;;5071659;28;20489;-72
2022/01/20 15:07:06;;;;;;;22.00;12.73;;;;;;;;;;5070414;28;20075;-71
2022/01/20 15:09:32;;;;;;;16.73;11.13;;;;;;;;;;5071900;28;20103;-72
2022/01/20 15:11:58;;;;;;;22.30;12.90;;;;;;;;;;5074598;28;20036;-73
2022/01/20 15:14:24;;;;;;;28.65;14.63;;;;;;;;;;5075735;28;20598;-80
2022/01/20 15:16:50;;;;;;;21.85;13.60;;;;;;;;;;5074753;28;20111;-75
2022/01/20 15:19:16;;;;;;;24.30;13.30;;;;;;;;;;5075584;28;20086;-74
2022/01/20 15:21:44;;;;;;;26.63;13.20;;;;;;;;;;5074988;28;20036;-76
2022/01/20 15:24:11;;;;;;;19.85;12.18;;;;;;;;;;5075339;28;20094;-74
2022/01/20 15:26:37;;;;;;;35.53;17.85;;;;;;;;;;5075190;28;20033;-75
2022/01/20 15:29:04;;;;;;;29.67;13.13;;;;;;;;;;5074995;28;20048;-72
2022/01/20 15:31:36;;;;;;;26.30;15.65;;;;;;;;;;5074883;28;20060;-74
2022/01/20 15:34:06;;;;;;;21.52;13.55;;;;;;;;;;5074929;28;20479;-74
2022/01/20 15:36:33;;;;;;;29.80;13.23;;;;;;;;;;5075212;28;20044;-74
2022/01/20 15:39:01;;;;;;;25.15;12.40;;;;;;;;;;5075008;28;20021;-72
2022/01/20 15:41:27;;;;;;;26.70;13.10;;;;;;;;;;5073685;28;20086;-72